sensor_id;sensor_type;location;lat;lon;timestamp;pressure;altitude;pressure_sealevel;temperature;humidity
79037;BME280;68434;59.896;30.474;2023-04-03T00:02:23;102605.84;;;-0.42;70.00
79037;BME280;68434;59.896;30.474;2023-04-03T00:04:50;102601.28;;;-0.39;69.95
79037;BME280;68434;59.896;30.474;2023-04-03T00:07:18;102599.69;;;-0.44;70.41
79037;BME280;68434;59.896;30.474;2023-04-03T00:09:45;102600.91;;;-0.57;70.47
79037;BME280;68434;59.896;30.474;2023-04-03T00:12:13;102601.81;;;-0.58;70.53
79037;BME280;68434;59.896;30.474;2023-04-03T00:14:42;102584.94;;;-0.56;70.39
79037;BME280;68434;59.896;30.474;2023-04-03T00:17:10;102591.66;;;-0.43;70.08
79037;BME280;68434;59.896;30.474;2023-04-03T00:19:37;102605.19;;;-0.52;70.77
79037;BME280;68434;59.896;30.474;2023-04-03T00:22:05;102602.53;;;-0.52;71.37
79037;BME280;68434;59.896;30.474;2023-04-03T00:24:32;102597.25;;;-0.53;71.35
79037;BME280;68434;59.896;30.474;2023-04-03T00:27:00;102591.81;;;-0.49;70.80
79037;BME280;68434;59.896;30.474;2023-04-03T00:29:27;102587.78;;;-0.63;71.38
79037;BME280;68434;59.896;30.474;2023-04-03T00:31:56;102590.56;;;-0.36;70.63
79037;BME280;68434;59.896;30.474;2023-04-03T00:34:24;102594.53;;;-0.50;70.82
79037;BME280;68434;59.896;30.474;2023-04-03T00:36:51;102591.97;;;-0.55;71.01
79037;BME280;68434;59.896;30.474;2023-04-03T00:39:18;102584.97;;;-0.57;70.90
79037;BME280;68434;59.896;30.474;2023-04-03T00:41:46;102592.19;;;-0.62;71.32
79037;BME280;68434;59.896;30.474;2023-04-03T00:44:22;102595.00;;;-0.68;71.51
79037;BME280;68434;59.896;30.474;2023-04-03T00:46:50;102590.84;;;-0.46;71.03
79037;BME280;68434;59.896;30.474;2023-04-03T00:49:22;102588.69;;;-0.64;71.24
79037;BME280;68434;59.896;30.474;2023-04-03T00:51:53;102591.38;;;-0.66;70.81
79037;BME280;68434;59.896;30.474;2023-04-03T00:54:20;102586.91;;;-0.64;71.12
79037;BME280;68434;59.896;30.474;2023-04-03T00:56:49;102598.31;;;-0.59;71.62
79037;BME280;68434;59.896;30.474;2023-04-03T00:59:21;102590.44;;;-0.63;71.79
79037;BME280;68434;59.896;30.474;2023-04-03T01:01:52;102598.69;;;-0.74;72.36
79037;BME280;68434;59.896;30.474;2023-04-03T01:04:30;102580.91;;;-0.72;72.01
79037;BME280;68434;59.896;30.474;2023-04-03T01:07:01;102583.59;;;-0.73;72.82
79037;BME280;68434;59.896;30.474;2023-04-03T01:09:29;102587.63;;;-0.57;71.27
79037;BME280;68434;59.896;30.474;2023-04-03T01:12:12;102593.66;;;-0.84;72.67
79037;BME280;68434;59.896;30.474;2023-04-03T01:14:42;102594.16;;;-0.70;72.62
79037;BME280;68434;59.896;30.474;2023-04-03T01:17:26;102596.53;;;-0.60;72.03
79037;BME280;68434;59.896;30.474;2023-04-03T01:22:46;102590.09;;;-0.85;71.17
79037;BME280;68434;59.896;30.474;2023-04-03T01:25:21;102580.22;;;-0.78;71.55
79037;BME280;68434;59.896;30.474;2023-04-03T01:27:49;102580.22;;;-0.78;71.27
79037;BME280;68434;59.896;30.474;2023-04-03T01:30:18;102558.22;;;-0.85;70.75
79037;BME280;68434;59.896;30.474;2023-04-03T01:32:47;102579.16;;;-0.73;70.29
79037;BME280;68434;59.896;30.474;2023-04-03T01:35:14;102572.44;;;-0.86;70.32
79037;BME280;68434;59.896;30.474;2023-04-03T01:37:42;102570.69;;;-0.88;70.34
79037;BME280;68434;59.896;30.474;2023-04-03T01:40:10;102579.63;;;-0.91;70.98
79037;BME280;68434;59.896;30.474;2023-04-03T01:42:38;102587.63;;;-0.92;70.76
79037;BME280;68434;59.896;30.474;2023-04-03T01:45:06;102582.63;;;-1.04;71.15
79037;BME280;68434;59.896;30.474;2023-04-03T01:47:33;102582.69;;;-1.07;71.51
79037;BME280;68434;59.896;30.474;2023-04-03T01:50:03;102576.41;;;-1.03;71.84
79037;BME280;68434;59.896;30.474;2023-04-03T01:52:32;102581.78;;;-1.06;72.41
79037;BME280;68434;59.896;30.474;2023-04-03T01:55:00;102584.66;;;-1.15;73.38
79037;BME280;68434;59.896;30.474;2023-04-03T01:57:29;102584.47;;;-1.08;73.89
79037;BME280;68434;59.896;30.474;2023-04-03T01:59:56;102590.44;;;-0.98;73.35
79037;BME280;68434;59.896;30.474;2023-04-03T02:02:24;102589.53;;;-0.97;72.11
79037;BME280;68434;59.896;30.474;2023-04-03T02:04:51;102587.13;;;-1.08;72.17
79037;BME280;68434;59.896;30.474;2023-04-03T02:07:20;102581.66;;;-1.02;71.71
79037;BME280;68434;59.896;30.474;2023-04-03T02:09:48;102576.41;;;-1.03;71.39
79037;BME280;68434;59.896;30.474;2023-04-03T02:12:15;102577.28;;;-1.03;71.40
79037;BME280;68434;59.896;30.474;2023-04-03T02:14:43;102589.75;;;-1.06;70.81
79037;BME280;68434;59.896;30.474;2023-04-03T02:17:12;102580.97;;;-1.08;70.70
79037;BME280;68434;59.896;30.474;2023-04-03T02:19:39;102585.53;;;-1.15;71.57
79037;BME280;68434;59.896;30.474;2023-04-03T02:22:07;102586.34;;;-1.11;71.58
79037;BME280;68434;59.896;30.474;2023-04-03T02:24:36;102589.81;;;-1.09;71.49
79037;BME280;68434;59.896;30.474;2023-04-03T02:27:05;102584.59;;;-1.12;71.20
79037;BME280;68434;59.896;30.474;2023-04-03T02:29:32;102587.34;;;-1.17;71.18
79037;BME280;68434;59.896;30.474;2023-04-03T02:32:00;102583.03;;;-1.21;71.16
79037;BME280;68434;59.896;30.474;2023-04-03T02:34:28;102575.94;;;-1.20;71.22
79037;BME280;68434;59.896;30.474;2023-04-03T02:36:57;102582.84;;;-1.13;71.46
79037;BME280;68434;59.896;30.474;2023-04-03T02:39:24;102575.88;;;-1.17;71.58
79037;BME280;68434;59.896;30.474;2023-04-03T02:41:54;102584.63;;;-1.14;71.60
79037;BME280;68434;59.896;30.474;2023-04-03T02:44:24;102573.44;;;-1.26;71.63
79037;BME280;68434;59.896;30.474;2023-04-03T02:46:52;102575.09;;;-1.22;71.40
79037;BME280;68434;59.896;30.474;2023-04-03T02:49:19;102585.00;;;-1.30;71.92
79037;BME280;68434;59.896;30.474;2023-04-03T02:51:47;102587.31;;;-1.15;72.25
79037;BME280;68434;59.896;30.474;2023-04-03T02:54:14;102576.81;;;-1.20;71.98
79037;BME280;68434;59.896;30.474;2023-04-03T02:56:46;102586.59;;;-1.22;72.00
79037;BME280;68434;59.896;30.474;2023-04-03T02:59:15;102584.97;;;-1.29;71.82
79037;BME280;68434;59.896;30.474;2023-04-03T03:01:43;102588.94;;;-1.46;72.21
79037;BME280;68434;59.896;30.474;2023-04-03T03:04:11;102581.91;;;-1.47;72.93
79037;BME280;68434;59.896;30.474;2023-04-03T03:06:38;102582.47;;;-1.35;73.74
79037;BME280;68434;59.896;30.474;2023-04-03T03:09:07;102584.28;;;-1.35;73.46
79037;BME280;68434;59.896;30.474;2023-04-03T03:11:35;102591.91;;;-1.22;73.30
79037;BME280;68434;59.896;30.474;2023-04-03T03:14:02;102577.81;;;-1.25;72.96
79037;BME280;68434;59.896;30.474;2023-04-03T03:16:31;102585.53;;;-1.15;72.69
79037;BME280;68434;59.896;30.474;2023-04-03T03:18:58;102582.28;;;-1.27;72.51
79037;BME280;68434;59.896;30.474;2023-04-03T03:21:26;102589.19;;;-1.19;72.59
79037;BME280;68434;59.896;30.474;2023-04-03T03:23:54;102585.69;;;-1.21;72.89
79037;BME280;68434;59.896;30.474;2023-04-03T03:26:21;102584.00;;;-1.23;72.19
79037;BME280;68434;59.896;30.474;2023-04-03T03:28:49;102579.63;;;-1.27;72.33
79037;BME280;68434;59.896;30.474;2023-04-03T03:31:16;102588.31;;;-1.19;72.04
79037;BME280;68434;59.896;30.474;2023-04-03T03:33:45;102585.72;;;-1.22;71.62
79037;BME280;68434;59.896;30.474;2023-04-03T03:36:13;102579.50;;;-1.21;72.32
79037;BME280;68434;59.896;30.474;2023-04-03T03:38:41;102580.41;;;-1.22;71.90
79037;BME280;68434;59.896;30.474;2023-04-03T03:41:09;102596.38;;;-1.24;72.24
79037;BME280;68434;59.896;30.474;2023-04-03T03:43:37;102586.47;;;-1.16;72.04
79037;BME280;68434;59.896;30.474;2023-04-03T03:46:06;102581.34;;;-1.23;71.59
79037;BME280;68434;59.896;30.474;2023-04-03T03:48:34;102589.38;;;-1.26;73.10
79037;BME280;68434;59.896;30.474;2023-04-03T03:51:03;102597.72;;;-1.43;73.46
79037;BME280;68434;59.896;30.474;2023-04-03T03:53:34;102592.38;;;-1.41;74.62
79037;BME280;68434;59.896;30.474;2023-04-03T03:56:06;102581.00;;;-1.48;74.51
79037;BME280;68434;59.896;30.474;2023-04-03T03:58:35;102593.25;;;-1.42;74.67
79037;BME280;68434;59.896;30.474;2023-04-03T04:01:04;102591.41;;;-1.39;75.29
79037;BME280;68434;59.896;30.474;2023-04-03T04:03:33;102592.13;;;-1.31;75.08
79037;BME280;68434;59.896;30.474;2023-04-03T04:06:03;102586.84;;;-1.32;75.85
79037;BME280;68434;59.896;30.474;2023-04-03T04:08:30;102591.50;;;-1.42;75.52
79037;BME280;68434;59.896;30.474;2023-04-03T04:10:58;102582.22;;;-1.24;76.30
79037;BME280;68434;59.896;30.474;2023-04-03T04:13:25;102590.47;;;-1.36;74.21
79037;BME280;68434;59.896;30.474;2023-04-03T04:15:53;102587.63;;;-1.29;73.84
79037;BME280;68434;59.896;30.474;2023-04-03T04:18:38;102581.59;;;-1.34;75.15
79037;BME280;68434;59.896;30.474;2023-04-03T04:21:07;102586.84;;;-1.32;75.72
79037;BME280;68434;59.896;30.474;2023-04-03T04:23:35;102589.72;;;-1.41;74.23
79037;BME280;68434;59.896;30.474;2023-04-03T04:26:03;102577.13;;;-1.33;75.25
79037;BME280;68434;59.896;30.474;2023-04-03T04:28:34;102575.50;;;-1.39;75.67
79037;BME280;68434;59.896;30.474;2023-04-03T04:31:05;102577.22;;;-1.38;75.40
79037;BME280;68434;59.896;30.474;2023-04-03T04:33:33;102581.81;;;-1.44;75.12
79037;BME280;68434;59.896;30.474;2023-04-03T04:36:03;102586.19;;;-1.42;75.24
79037;BME280;68434;59.896;30.474;2023-04-03T04:38:33;102600.41;;;-1.44;75.62
79037;BME280;68434;59.896;30.474;2023-04-03T04:41:01;102585.22;;;-1.39;79.66
79037;BME280;68434;59.896;30.474;2023-04-03T04:43:29;102582.28;;;-1.27;79.15
79037;BME280;68434;59.896;30.474;2023-04-03T04:46:01;102574.22;;;-1.23;77.63
79037;BME280;68434;59.896;30.474;2023-04-03T04:48:29;102578.78;;;-1.28;75.05
79037;BME280;68434;59.896;30.474;2023-04-03T04:50:57;102570.56;;;-1.17;74.36
79037;BME280;68434;59.896;30.474;2023-04-03T04:53:25;102580.38;;;-1.21;73.82
79037;BME280;68434;59.896;30.474;2023-04-03T04:55:54;102560.28;;;-1.31;73.98
79037;BME280;68434;59.896;30.474;2023-04-03T04:58:21;102574.16;;;-1.20;73.44
79037;BME280;68434;59.896;30.474;2023-04-03T05:00:50;102571.44;;;-1.18;73.23
79037;BME280;68434;59.896;30.474;2023-04-03T05:03:17;102572.13;;;-1.09;73.53
79037;BME280;68434;59.896;30.474;2023-04-03T05:05:45;102577.34;;;-1.06;73.27
79037;BME280;68434;59.896;30.474;2023-04-03T05:08:12;102576.28;;;-0.99;72.79
79037;BME280;68434;59.896;30.474;2023-04-03T05:10:41;102582.91;;;-1.16;73.08
79037;BME280;68434;59.896;30.474;2023-04-03T05:13:12;102568.50;;;-1.06;73.44
79037;BME280;68434;59.896;30.474;2023-04-03T05:15:40;102573.78;;;-1.05;73.04
79037;BME280;68434;59.896;30.474;2023-04-03T05:18:08;102571.50;;;-1.20;73.24
79037;BME280;68434;59.896;30.474;2023-04-03T05:20:36;102574.06;;;-1.17;73.39
79037;BME280;68434;59.896;30.474;2023-04-03T05:23:04;102580.97;;;-1.08;73.00
79037;BME280;68434;59.896;30.474;2023-04-03T05:25:34;102578.41;;;-1.13;73.02
79037;BME280;68434;59.896;30.474;2023-04-03T05:28:02;102573.00;;;-1.08;73.61
79037;BME280;68434;59.896;30.474;2023-04-03T05:30:54;102585.25;;;-1.03;73.41
79037;BME280;68434;59.896;30.474;2023-04-03T05:33:42;102576.22;;;-0.96;73.47
79037;BME280;68434;59.896;30.474;2023-04-03T05:36:15;102581.75;;;-1.05;73.23
79037;BME280;68434;59.896;30.474;2023-04-03T05:38:47;102590.63;;;-1.06;72.77
79037;BME280;68434;59.896;30.474;2023-04-03T05:41:15;102573.03;;;-1.10;71.31
79037;BME280;68434;59.896;30.474;2023-04-03T05:43:45;102575.59;;;-1.05;71.78
79037;BME280;68434;59.896;30.474;2023-04-03T05:46:16;102574.59;;;-1.01;71.54
79037;BME280;68434;59.896;30.474;2023-04-03T05:48:47;102588.06;;;-1.09;70.18
79037;BME280;68434;59.896;30.474;2023-04-03T05:51:22;102579.63;;;-0.91;70.63
79037;BME280;68434;59.896;30.474;2023-04-03T05:53:55;102591.19;;;-0.92;70.39
79037;BME280;68434;59.896;30.474;2023-04-03T05:56:24;102581.13;;;-0.81;70.30
79037;BME280;68434;59.896;30.474;2023-04-03T05:58:51;102593.09;;;-0.98;69.70
79037;BME280;68434;59.896;30.474;2023-04-03T06:01:38;102602.63;;;-0.90;69.88
79037;BME280;68434;59.896;30.474;2023-04-03T06:04:07;102593.81;;;-0.90;69.94
79037;BME280;68434;59.896;30.474;2023-04-03T06:06:45;102594.00;;;-0.98;70.72
79037;BME280;68434;59.896;30.474;2023-04-03T06:09:32;102602.28;;;-0.76;70.04
79037;BME280;68434;59.896;30.474;2023-04-03T06:12:00;102603.03;;;-0.71;69.72
79037;BME280;68434;59.896;30.474;2023-04-03T06:14:29;102590.69;;;-0.72;70.07
79037;BME280;68434;59.896;30.474;2023-04-03T06:16:58;102595.06;;;-0.71;70.96
79037;BME280;68434;59.896;30.474;2023-04-03T06:19:26;102587.84;;;-0.65;69.69
79037;BME280;68434;59.896;30.474;2023-04-03T06:22:16;102594.16;;;-0.70;70.36
79037;BME280;68434;59.896;30.474;2023-04-03T06:27:32;102591.22;;;-0.60;70.30
79037;BME280;68434;59.896;30.474;2023-04-03T06:30:00;102584.59;;;-0.44;70.33
79037;BME280;68434;59.896;30.474;2023-04-03T06:32:30;102584.56;;;-0.42;70.11
79037;BME280;68434;59.896;30.474;2023-04-03T06:34:58;102586.63;;;-0.53;70.25
79037;BME280;68434;59.896;30.474;2023-04-03T06:37:26;102581.56;;;-0.62;69.71
79037;BME280;68434;59.896;30.474;2023-04-03T06:40:15;102573.91;;;-0.41;70.41
79037;BME280;68434;59.896;30.474;2023-04-03T06:42:46;102583.47;;;-0.69;69.90
79037;BME280;68434;59.896;30.474;2023-04-03T06:45:14;102575.03;;;-0.51;70.74
79037;BME280;68434;59.896;30.474;2023-04-03T06:47:43;102583.63;;;-0.41;70.04
79037;BME280;68434;59.896;30.474;2023-04-03T06:50:11;102590.91;;;-0.48;69.50
79037;BME280;68434;59.896;30.474;2023-04-03T06:52:40;102589.13;;;-0.47;69.89
79037;BME280;68434;59.896;30.474;2023-04-03T06:55:09;102600.53;;;-0.42;70.12
79037;BME280;68434;59.896;30.474;2023-04-03T06:57:38;102585.16;;;-0.33;70.08
79037;BME280;68434;59.896;30.474;2023-04-03T07:00:07;102588.75;;;-0.34;70.57
79037;BME280;68434;59.896;30.474;2023-04-03T07:02:35;102588.53;;;-0.26;70.42
79037;BME280;68434;59.896;30.474;2023-04-03T07:05:05;102596.59;;;-0.29;71.27
79037;BME280;68434;59.896;30.474;2023-04-03T07:07:33;102601.97;;;-0.31;71.94
79037;BME280;68434;59.896;30.474;2023-04-03T07:10:01;102592.50;;;-0.10;71.09
79037;BME280;68434;59.896;30.474;2023-04-03T07:12:29;102595.44;;;-0.51;72.59
79037;BME280;68434;59.896;30.474;2023-04-03T07:14:59;102601.09;;;-0.31;72.22
79037;BME280;68434;59.896;30.474;2023-04-03T07:17:27;102594.25;;;-0.08;71.00
79037;BME280;68434;59.896;30.474;2023-04-03T07:19:54;102597.22;;;0.11;69.77
79037;BME280;68434;59.896;30.474;2023-04-03T07:22:23;102599.13;;;0.06;69.48
79037;BME280;68434;59.896;30.474;2023-04-03T07:24:51;102601.81;;;0.06;70.83
79037;BME280;68434;59.896;30.474;2023-04-03T07:27:18;102593.78;;;0.08;69.85
79037;BME280;68434;59.896;30.474;2023-04-03T07:29:46;102595.94;;;-0.05;70.15
79037;BME280;68434;59.896;30.474;2023-04-03T07:32:15;102588.09;;;-0.10;70.02
79037;BME280;68434;59.896;30.474;2023-04-03T07:34:42;102600.63;;;-0.15;69.76
79037;BME280;68434;59.896;30.474;2023-04-03T07:37:10;102589.94;;;-0.13;70.58
79037;BME280;68434;59.896;30.474;2023-04-03T07:39:43;102608.19;;;0.31;69.69
79037;BME280;68434;59.896;30.474;2023-04-03T07:42:11;102612.00;;;0.21;69.41
79037;BME280;68434;59.896;30.474;2023-04-03T07:44:39;102606.56;;;0.55;69.33
79037;BME280;68434;59.896;30.474;2023-04-03T07:47:07;102610.66;;;0.37;68.88
79037;BME280;68434;59.896;30.474;2023-04-03T07:49:35;102609.81;;;0.04;68.79
79037;BME280;68434;59.896;30.474;2023-04-03T07:52:05;102606.38;;;0.32;69.12
79037;BME280;68434;59.896;30.474;2023-04-03T07:54:35;102617.28;;;0.23;68.98
79037;BME280;68434;59.896;30.474;2023-04-03T07:57:04;102599.28;;;0.01;68.02
79037;BME280;68434;59.896;30.474;2023-04-03T07:59:32;102593.72;;;0.09;68.67
79037;BME280;68434;59.896;30.474;2023-04-03T08:02:00;102610.75;;;0.03;68.68
79037;BME280;68434;59.896;30.474;2023-04-03T08:04:27;102620.50;;;0.03;69.55
79037;BME280;68434;59.896;30.474;2023-04-03T08:06:55;102615.00;;;-0.22;71.44
79037;BME280;68434;59.896;30.474;2023-04-03T08:09:22;102608.69;;;-0.18;71.83
79037;BME280;68434;59.896;30.474;2023-04-03T08:11:50;102613.00;;;-0.12;71.49
79037;BME280;68434;59.896;30.474;2023-04-03T08:14:20;102604.75;;;-0.03;71.77
79037;BME280;68434;59.896;30.474;2023-04-03T08:16:48;102617.59;;;0.12;72.36
79037;BME280;68434;59.896;30.474;2023-04-03T08:19:16;102621.00;;;0.17;69.92
79037;BME280;68434;59.896;30.474;2023-04-03T08:21:44;102621.53;;;0.30;68.46
79037;BME280;68434;59.896;30.474;2023-04-03T08:24:12;102607.78;;;0.45;68.22
79037;BME280;68434;59.896;30.474;2023-04-03T08:26:40;102625.25;;;0.53;67.34
79037;BME280;68434;59.896;30.474;2023-04-03T08:29:08;102636.69;;;0.57;67.36
79037;BME280;68434;59.896;30.474;2023-04-03T08:31:37;102636.28;;;0.70;66.78
79037;BME280;68434;59.896;30.474;2023-04-03T08:34:05;102636.38;;;0.67;66.92
79037;BME280;68434;59.896;30.474;2023-04-03T08:36:32;102640.16;;;0.30;67.99
79037;BME280;68434;59.896;30.474;2023-04-03T08:39:00;102631.06;;;0.37;68.24
79037;BME280;68434;59.896;30.474;2023-04-03T08:41:33;102630.56;;;0.53;68.11
79037;BME280;68434;59.896;30.474;2023-04-03T08:44:09;102631.28;;;0.60;67.19
79037;BME280;68434;59.896;30.474;2023-04-03T08:46:52;102632.75;;;0.39;67.13
79037;BME280;68434;59.896;30.474;2023-04-03T08:49:25;102636.38;;;0.67;67.82
79037;BME280;68434;59.896;30.474;2023-04-03T08:51:56;102629.69;;;0.53;67.08
79037;BME280;68434;59.896;30.474;2023-04-03T08:54:30;102628.75;;;0.83;66.60
79037;BME280;68434;59.896;30.474;2023-04-03T08:57:03;102619.78;;;0.87;66.09
79037;BME280;68434;59.896;30.474;2023-04-03T08:59:34;102639.84;;;0.40;67.56
79037;BME280;68434;59.896;30.474;2023-04-03T09:02:23;102626.50;;;0.42;68.23
79037;BME280;68434;59.896;30.474;2023-04-03T09:04:52;102632.41;;;0.51;67.82
79037;BME280;68434;59.896;30.474;2023-04-03T09:07:23;102637.91;;;0.45;67.70
79037;BME280;68434;59.896;30.474;2023-04-03T09:09:53;102628.06;;;0.78;67.24
79037;BME280;68434;59.896;30.474;2023-04-03T09:12:23;102628.56;;;0.89;68.17
79037;BME280;68434;59.896;30.474;2023-04-03T09:14:59;102644.13;;;0.75;68.17
79037;BME280;68434;59.896;30.474;2023-04-03T09:17:42;102626.25;;;0.78;68.40
79037;BME280;68434;59.896;30.474;2023-04-03T09:20:19;102634.50;;;0.98;66.60
79037;BME280;68434;59.896;30.474;2023-04-03T09:22:52;102630.25;;;0.93;66.53
79037;BME280;68434;59.896;30.474;2023-04-03T09:25:22;102637.53;;;0.86;66.90
79037;BME280;68434;59.896;30.474;2023-04-03T09:27:50;102627.72;;;0.88;65.80
79037;BME280;68434;59.896;30.474;2023-04-03T09:30:21;102628.25;;;0.72;65.94
79037;BME280;68434;59.896;30.474;2023-04-03T09:32:52;102614.00;;;0.73;66.45
79037;BME280;68434;59.896;30.474;2023-04-03T09:35:23;102625.75;;;0.93;66.32
79037;BME280;68434;59.896;30.474;2023-04-03T09:37:54;102616.88;;;0.94;65.14
79037;BME280;68434;59.896;30.474;2023-04-03T09:40:30;102631.22;;;0.89;65.48
79037;BME280;68434;59.896;30.474;2023-04-03T09:43:00;102625.63;;;0.98;65.43
79037;BME280;68434;59.896;30.474;2023-04-03T09:45:30;102628.41;;;0.93;65.31
79037;BME280;68434;59.896;30.474;2023-04-03T09:48:15;102620.19;;;1.28;64.19
79037;BME280;68434;59.896;30.474;2023-04-03T09:50:56;102629.69;;;0.82;65.07
79037;BME280;68434;59.896;30.474;2023-04-03T09:53:28;102643.06;;;0.80;65.40
79037;BME280;68434;59.896;30.474;2023-04-03T09:55:57;102650.75;;;0.89;66.24
79037;BME280;68434;59.896;30.474;2023-04-03T09:58:27;102633.50;;;1.01;65.43
79037;BME280;68434;59.896;30.474;2023-04-03T10:00:57;102649.13;;;0.85;65.54
79037;BME280;68434;59.896;30.474;2023-04-03T10:03:30;102638.94;;;0.98;65.30
79037;BME280;68434;59.896;30.474;2023-04-03T10:05:58;102638.75;;;1.04;64.52
79037;BME280;68434;59.896;30.474;2023-04-03T10:08:29;102634.44;;;1.00;65.04
79037;BME280;68434;59.896;30.474;2023-04-03T10:11:08;102634.19;;;1.35;64.09
79037;BME280;68434;59.896;30.474;2023-04-03T10:13:55;102630.84;;;1.54;62.71
79037;BME280;68434;59.896;30.474;2023-04-03T10:16:28;102630.16;;;1.48;63.27
79037;BME280;68434;59.896;30.474;2023-04-03T10:19:13;102627.69;;;1.16;62.58
79037;BME280;68434;59.896;30.474;2023-04-03T10:21:48;102636.94;;;1.32;62.99
79037;BME280;68434;59.896;30.474;2023-04-03T10:24:22;102631.31;;;1.41;62.20
79037;BME280;68434;59.896;30.474;2023-04-03T10:26:57;102611.72;;;1.42;62.00
79037;BME280;68434;59.896;30.474;2023-04-03T10:29:35;102631.41;;;1.38;61.11
79037;BME280;68434;59.896;30.474;2023-04-03T10:32:15;102629.41;;;1.44;62.04
79037;BME280;68434;59.896;30.474;2023-04-03T10:34:54;102636.41;;;1.73;61.78
79037;BME280;68434;59.896;30.474;2023-04-03T10:37:34;102637.38;;;1.97;61.17
79037;BME280;68434;59.896;30.474;2023-04-03T10:40:18;102638.22;;;1.97;61.08
79037;BME280;68434;59.896;30.474;2023-04-03T10:42:52;102626.78;;;1.93;60.78
79037;BME280;68434;59.896;30.474;2023-04-03T10:45:25;102634.06;;;1.64;61.85
79037;BME280;68434;59.896;30.474;2023-04-03T10:48:01;102620.13;;;1.80;61.69
79037;BME280;68434;59.896;30.474;2023-04-03T10:50:46;102630.53;;;1.63;61.87
79037;BME280;68434;59.896;30.474;2023-04-03T10:53:24;102633.31;;;1.60;62.59
79037;BME280;68434;59.896;30.474;2023-04-03T10:56:02;102629.59;;;1.64;63.08
79037;BME280;68434;59.896;30.474;2023-04-03T10:58:37;102635.41;;;1.51;63.09
79037;BME280;68434;59.896;30.474;2023-04-03T11:01:09;102633.63;;;1.51;63.79
79037;BME280;68434;59.896;30.474;2023-04-03T11:03:42;102625.03;;;1.42;62.33
79037;BME280;68434;59.896;30.474;2023-04-03T11:06:15;102648.06;;;1.44;62.52
79037;BME280;68434;59.896;30.474;2023-04-03T11:08:46;102638.53;;;1.37;63.25
79037;BME280;68434;59.896;30.474;2023-04-03T11:11:20;102633.81;;;1.45;62.00
79037;BME280;68434;59.896;30.474;2023-04-03T11:13:52;102637.03;;;1.55;61.97
79037;BME280;68434;59.896;30.474;2023-04-03T11:16:25;102638.81;;;1.56;62.30
79037;BME280;68434;59.896;30.474;2023-04-03T11:18:56;102637.88;;;1.57;62.21
79037;BME280;68434;59.896;30.474;2023-04-03T11:21:31;102638.97;;;1.24;62.97
79037;BME280;68434;59.896;30.474;2023-04-03T11:24:03;102654.63;;;1.07;63.19
79037;BME280;68434;59.896;30.474;2023-04-03T11:26:37;102652.63;;;1.15;63.06
79037;BME280;68434;59.896;30.474;2023-04-03T11:29:08;102655.84;;;0.97;63.23
79037;BME280;68434;59.896;30.474;2023-04-03T11:32:00;102655.63;;;1.04;63.84
79037;BME280;68434;59.896;30.474;2023-04-03T11:34:34;102638.00;;;1.00;64.16
79037;BME280;68434;59.896;30.474;2023-04-03T11:37:13;102645.88;;;1.03;64.69
79037;BME280;68434;59.896;30.474;2023-04-03T11:40:04;102637.75;;;1.08;64.47
79037;BME280;68434;59.896;30.474;2023-04-03T11:45:34;102632.13;;;1.17;63.85
79037;BME280;68434;59.896;30.474;2023-04-03T11:48:40;102648.97;;;1.17;64.04
79037;BME280;68434;59.896;30.474;2023-04-03T11:50:58;102652.50;;;1.18;62.70
79037;BME280;68434;59.896;30.474;2023-04-03T11:53:33;102651.16;;;1.05;63.68
79037;BME280;68434;59.896;30.474;2023-04-03T11:56:31;102645.16;;;0.98;63.36
79037;BME280;68434;59.896;30.474;2023-04-03T11:59:22;102645.78;;;1.06;64.19
79037;BME280;68434;59.896;30.474;2023-04-03T12:01:52;102643.81;;;1.11;64.09
79037;BME280;68434;59.896;30.474;2023-04-03T12:04:21;102641.81;;;1.19;63.77
79037;BME280;68434;59.896;30.474;2023-04-03T12:07:11;102641.81;;;1.19;64.23
79037;BME280;68434;59.896;30.474;2023-04-03T12:10:14;102638.25;;;1.19;64.04
79037;BME280;68434;59.896;30.474;2023-04-03T12:12:56;102642.97;;;1.11;63.99
79037;BME280;68434;59.896;30.474;2023-04-03T12:15:50;102637.59;;;1.12;64.25
79037;BME280;68434;59.896;30.474;2023-04-03T12:18:53;102636.56;;;1.16;63.84
79037;BME280;68434;59.896;30.474;2023-04-03T12:21:23;102641.88;;;0.89;64.86
79037;BME280;68434;59.896;30.474;2023-04-03T12:24:05;102653.47;;;0.88;65.09
79037;BME280;68434;59.896;30.474;2023-04-03T12:27:02;102622.81;;;1.02;64.54
79037;BME280;68434;59.896;30.474;2023-04-03T12:29:34;102630.69;;;1.05;64.77
79037;BME280;68434;59.896;30.474;2023-04-03T12:32:14;102635.13;;;1.06;64.98
79037;BME280;68434;59.896;30.474;2023-04-03T12:35:01;102642.72;;;1.18;63.95
79037;BME280;68434;59.896;30.474;2023-04-03T12:37:43;102640.31;;;1.11;63.88
79037;BME280;68434;59.896;30.474;2023-04-03T12:40:23;102633.31;;;1.07;64.57
79037;BME280;68434;59.896;30.474;2023-04-03T12:45:58;102622.66;;;1.07;64.93
79037;BME280;68434;59.896;30.474;2023-04-03T12:48:31;102641.13;;;1.13;64.25
79037;BME280;68434;59.896;30.474;2023-04-03T12:50:59;102635.94;;;1.08;64.71
79037;BME280;68434;59.896;30.474;2023-04-03T12:53:29;102633.84;;;1.18;65.06
79037;BME280;68434;59.896;30.474;2023-04-03T12:56:22;102644.22;;;1.27;64.48
79037;BME280;68434;59.896;30.474;2023-04-03T12:58:51;102652.66;;;1.13;65.07
79037;BME280;68434;59.896;30.474;2023-04-03T13:01:24;102641.22;;;1.10;65.60
79037;BME280;68434;59.896;30.474;2023-04-03T13:03:54;102642.13;;;0.81;67.05
79037;BME280;68434;59.896;30.474;2023-04-03T13:06:24;102637.41;;;0.91;67.15
79037;BME280;68434;59.896;30.474;2023-04-03T13:08:55;102642.44;;;1.00;67.05
79037;BME280;68434;59.896;30.474;2023-04-03T13:11:28;102637.66;;;1.11;67.30
79037;BME280;68434;59.896;30.474;2023-04-03T13:13:59;102657.81;;;0.90;68.49
79037;BME280;68434;59.896;30.474;2023-04-03T13:16:29;102639.66;;;0.75;69.10
79037;BME280;68434;59.896;30.474;2023-04-03T13:18:57;102641.59;;;0.98;69.02
79037;BME280;68434;59.896;30.474;2023-04-03T13:21:28;102649.50;;;0.73;69.80